createdAt,value
2018-01-19T00:01:22.064Z,10.73
2018-01-19T00:03:48.236Z,8.97
2018-01-19T00:06:14.421Z,7.90
2018-01-19T00:08:40.588Z,1.97
2018-01-19T00:11:06.821Z,5.60
2018-01-19T00:13:32.950Z,8.70
2018-01-19T00:15:59.106Z,6.53
2018-01-19T00:18:25.313Z,5.60
2018-01-19T00:20:51.574Z,4.87
2018-01-19T00:23:17.857Z,8.20
2018-01-19T00:25:44.118Z,2.53
2018-01-19T00:28:10.354Z,2.87
2018-01-19T00:30:36.568Z,5.90
2018-01-19T00:33:02.822Z,4.17
2018-01-19T00:35:29.048Z,6.73
2018-01-19T00:37:55.308Z,4.73
2018-01-19T00:40:21.505Z,4.83
2018-01-19T00:42:47.710Z,5.13
2018-01-19T00:45:13.862Z,7.30
2018-01-19T00:47:40.071Z,6.10
2018-01-19T00:50:06.262Z,5.20
2018-01-19T00:52:32.436Z,4.73
2018-01-19T00:54:58.588Z,7.60
2018-01-19T00:57:25.672Z,6.03
2018-01-19T00:59:51.918Z,7.93
2018-01-19T01:02:18.263Z,5.00
2018-01-19T01:04:44.485Z,8.33
2018-01-19T01:07:10.666Z,7.83
2018-01-19T01:09:36.939Z,5.70
2018-01-19T01:12:03.200Z,11.67
2018-01-19T01:14:29.368Z,7.23
2018-01-19T01:16:55.565Z,5.03
2018-01-19T01:19:21.759Z,5.57
2018-01-19T01:21:47.989Z,8.43
2018-01-19T01:24:14.152Z,8.37
2018-01-19T01:26:40.295Z,7.80
2018-01-19T01:29:06.417Z,7.37
2018-01-19T01:31:32.623Z,6.93
2018-01-19T01:33:58.773Z,7.60
2018-01-19T01:36:24.981Z,11.77
2018-01-19T01:38:51.135Z,8.43
2018-01-19T01:41:17.399Z,10.77
2018-01-19T01:43:43.582Z,6.47
2018-01-19T01:46:09.747Z,7.43
2018-01-19T01:48:35.970Z,6.30
2018-01-19T01:51:02.207Z,9.10
2018-01-19T01:53:28.364Z,6.87
2018-01-19T01:55:54.517Z,8.93
2018-01-19T01:58:20.703Z,6.93
2018-01-19T02:00:46.855Z,7.23
2018-01-19T02:03:13.108Z,10.80
2018-01-19T02:05:39.385Z,7.73
2018-01-19T02:08:05.541Z,11.60
2018-01-19T02:10:31.673Z,9.63
2018-01-19T02:12:57.897Z,9.90
2018-01-19T02:15:24.146Z,5.07
2018-01-19T02:17:50.316Z,3.57
2018-01-19T02:20:16.504Z,6.23
2018-01-19T02:22:42.715Z,7.07
2018-01-19T02:25:08.888Z,4.07
2018-01-19T02:27:35.042Z,13.30
2018-01-19T02:30:01.238Z,6.00
2018-01-19T02:32:27.461Z,6.77
2018-01-19T02:34:54.599Z,7.10
2018-01-19T02:37:20.759Z,5.43
2018-01-19T02:39:46.901Z,8.80
2018-01-19T02:42:13.180Z,5.27
2018-01-19T02:44:39.307Z,5.43
2018-01-19T02:47:05.457Z,8.97
2018-01-19T02:49:31.893Z,9.23
2018-01-19T02:51:58.206Z,6.83
2018-01-19T02:54:24.339Z,6.00
2018-01-19T02:56:51.262Z,4.87
2018-01-19T02:59:17.508Z,7.97
2018-01-19T03:01:43.833Z,7.17
2018-01-19T03:04:09.978Z,7.80
2018-01-19T03:06:36.794Z,7.93
2018-01-19T03:09:03.047Z,5.17
2018-01-19T03:11:29.804Z,9.40
2018-01-19T03:13:55.995Z,10.63
2018-01-19T03:16:22.238Z,11.13
2018-01-19T03:18:48.435Z,8.43
2018-01-19T03:21:14.611Z,7.13
2018-01-19T03:23:40.838Z,4.60
2018-01-19T03:26:07.004Z,9.87
2018-01-19T03:28:33.134Z,9.17
2018-01-19T03:30:59.331Z,7.20
2018-01-19T03:33:25.556Z,5.47
2018-01-19T03:35:51.757Z,7.27
2018-01-19T03:38:17.952Z,6.83
2018-01-19T03:40:44.116Z,3.90
2018-01-19T03:43:10.450Z,6.17
2018-01-19T03:45:36.676Z,8.10
2018-01-19T03:48:02.856Z,7.87
2018-01-19T03:50:29.023Z,10.10
2018-01-19T03:52:55.307Z,3.93
2018-01-19T03:55:21.505Z,6.80
2018-01-19T03:57:47.671Z,4.97
2018-01-19T04:00:13.881Z,6.17
2018-01-19T04:02:40.109Z,5.80
2018-01-19T04:05:06.273Z,4.63
2018-01-19T04:07:32.438Z,6.50
2018-01-19T04:09:58.581Z,6.07
2018-01-19T04:12:24.812Z,9.50
2018-01-19T04:14:50.993Z,5.87
2018-01-19T04:17:17.150Z,9.30
2018-01-19T04:19:44.342Z,2.40
2018-01-19T04:22:10.554Z,7.23
2018-01-19T04:24:36.685Z,7.10
2018-01-19T04:27:02.870Z,7.50
2018-01-19T04:29:29.062Z,7.33
2018-01-19T04:31:55.267Z,6.63
2018-01-19T04:34:21.751Z,7.63
2018-01-19T04:36:47.938Z,7.07
2018-01-19T04:39:14.116Z,5.57
2018-01-19T04:41:40.401Z,7.27
2018-01-19T04:44:06.589Z,7.90
2018-01-19T04:46:32.726Z,7.70
2018-01-19T04:48:59.028Z,5.07
2018-01-19T04:51:25.232Z,5.03
2018-01-19T04:53:51.431Z,8.27
2018-01-19T04:56:18.646Z,7.13
2018-01-19T04:58:45.785Z,4.17
2018-01-19T05:01:11.979Z,10.57
2018-01-19T05:03:38.193Z,7.33
2018-01-19T05:06:04.377Z,14.30
2018-01-19T05:08:31.464Z,6.90
2018-01-19T05:10:57.585Z,5.47
2018-01-19T05:13:23.826Z,6.33
2018-01-19T05:15:50.006Z,7.60
2018-01-19T05:18:23.102Z,10.40
2018-01-19T05:20:49.306Z,6.23
2018-01-19T05:23:15.538Z,11.17
2018-01-19T05:25:41.672Z,6.10
2018-01-19T05:28:07.832Z,7.50
2018-01-19T05:30:34.036Z,9.83
2018-01-19T05:33:00.280Z,9.57
2018-01-19T05:35:26.429Z,11.53
2018-01-19T05:37:52.603Z,9.87
2018-01-19T05:40:18.799Z,10.70
2018-01-19T05:42:45.223Z,12.77
2018-01-19T05:45:11.385Z,5.83
2018-01-19T05:47:37.531Z,7.40
2018-01-19T05:50:03.770Z,6.30
2018-01-19T05:52:29.920Z,9.37
2018-01-19T05:54:56.159Z,12.07
2018-01-19T05:57:22.358Z,8.43
2018-01-19T05:59:48.511Z,8.20
2018-01-19T06:02:14.752Z,7.33
2018-01-19T06:04:40.954Z,5.83
2018-01-19T06:07:07.145Z,9.33
2018-01-19T06:09:33.364Z,5.67
2018-01-19T06:11:59.570Z,11.50
2018-01-19T06:14:25.740Z,8.47
2018-01-19T06:16:51.918Z,8.20
2018-01-19T06:19:18.133Z,8.17
2018-01-19T06:21:44.307Z,8.23
2018-01-19T06:24:10.463Z,6.17
2018-01-19T06:26:36.697Z,9.50
2018-01-19T06:29:02.916Z,6.97
2018-01-19T06:31:29.064Z,9.93
2018-01-19T06:33:55.252Z,8.13
2018-01-19T06:36:21.474Z,10.07
2018-01-19T06:38:47.702Z,9.77
2018-01-19T06:41:13.862Z,9.90
2018-01-19T06:43:40.072Z,10.63
2018-01-19T06:46:06.196Z,11.53
2018-01-19T06:48:32.431Z,8.13
2018-01-19T06:50:58.592Z,14.83
2018-01-19T06:53:24.750Z,10.53
2018-01-19T06:55:51.013Z,8.83
2018-01-19T06:58:17.228Z,8.63
2018-01-19T07:00:43.419Z,10.07
2018-01-19T07:03:09.701Z,11.87
2018-01-19T07:05:35.870Z,9.90
2018-01-19T07:08:01.995Z,13.57
2018-01-19T07:10:28.265Z,10.93
2018-01-19T07:12:54.462Z,10.80
2018-01-19T07:15:20.615Z,10.23
2018-01-19T07:17:47.255Z,8.30
2018-01-19T07:20:15.365Z,10.40
2018-01-19T07:22:41.516Z,15.03
2018-01-19T07:25:07.760Z,8.13
2018-01-19T07:27:34.029Z,9.27
2018-01-19T07:30:00.258Z,7.33
2018-01-19T07:32:26.490Z,9.97
2018-01-19T07:34:52.835Z,8.27
2018-01-19T07:37:18.985Z,12.70
2018-01-19T07:39:45.341Z,11.67
2018-01-19T07:42:11.573Z,12.37
2018-01-19T07:44:37.756Z,12.30
2018-01-19T07:47:03.914Z,8.80
2018-01-19T07:49:30.151Z,11.70
2018-01-19T07:51:56.371Z,9.73
2018-01-19T07:54:22.510Z,11.77
2018-01-19T07:56:48.700Z,11.70
2018-01-19T07:59:14.907Z,12.00
2018-01-19T08:01:41.243Z,13.97
2018-01-19T08:04:07.478Z,12.53
2018-01-19T08:06:33.634Z,13.30
2018-01-19T08:08:59.847Z,15.33
2018-01-19T08:11:26.116Z,9.30
2018-01-19T08:13:52.341Z,14.23
2018-01-19T08:16:18.545Z,11.27
2018-01-19T08:18:44.746Z,12.47
2018-01-19T08:21:10.884Z,8.97
2018-01-19T08:23:37.080Z,10.57
2018-01-19T08:26:03.258Z,9.93
2018-01-19T08:28:29.461Z,12.57
2018-01-19T08:30:55.629Z,11.80
2018-01-19T08:33:21.794Z,11.43
2018-01-19T08:35:47.953Z,8.47
2018-01-19T08:38:14.107Z,14.93
2018-01-19T08:40:40.320Z,8.20
2018-01-19T08:43:06.546Z,13.57
2018-01-19T08:45:32.683Z,10.30
2018-01-19T08:47:58.871Z,16.23
2018-01-19T08:50:25.053Z,10.33
2018-01-19T08:52:51.195Z,10.80
2018-01-19T08:55:17.415Z,9.40
2018-01-19T08:57:43.602Z,6.00
2018-01-19T09:00:10.086Z,10.03
2018-01-19T09:02:36.262Z,11.97
2018-01-19T09:05:02.517Z,7.70
2018-01-19T09:07:29.679Z,10.40
2018-01-19T09:09:55.904Z,11.87
2018-01-19T09:12:22.091Z,6.60
2018-01-19T09:14:48.307Z,11.13
2018-01-19T09:17:14.473Z,13.53
2018-01-19T09:19:40.681Z,13.73
2018-01-19T09:22:06.841Z,12.27
2018-01-19T09:24:32.998Z,9.03
2018-01-19T09:26:59.196Z,9.23
2018-01-19T09:29:25.594Z,11.23
2018-01-19T09:31:51.767Z,10.70
2018-01-19T09:34:17.950Z,11.73
2018-01-19T09:36:44.146Z,9.53
2018-01-19T09:39:10.372Z,7.27
2018-01-19T09:41:36.528Z,6.13
2018-01-19T09:44:02.809Z,9.30
2018-01-19T09:46:29.232Z,7.77
2018-01-19T09:48:55.434Z,8.17
2018-01-19T09:51:21.657Z,10.50
2018-01-19T09:53:47.915Z,15.43
2018-01-19T09:56:14.065Z,7.03
2018-01-19T09:58:40.217Z,12.87
2018-01-19T10:01:06.603Z,9.90
2018-01-19T10:03:32.769Z,7.77
2018-01-19T10:05:58.924Z,8.50
2018-01-19T10:08:25.100Z,11.30
2018-01-19T10:10:51.302Z,10.83
2018-01-19T10:13:17.493Z,13.47
2018-01-19T10:15:43.644Z,10.53
2018-01-19T10:18:09.778Z,10.67
2018-01-19T10:20:36.012Z,10.13
2018-01-19T10:23:02.212Z,12.10
2018-01-19T10:25:28.385Z,13.03
2018-01-19T10:27:54.543Z,13.87
2018-01-19T10:30:20.779Z,11.60
2018-01-19T10:32:46.956Z,9.40
2018-01-19T10:35:13.086Z,11.83
2018-01-19T10:37:39.255Z,14.63
2018-01-19T10:40:05.433Z,8.60
2018-01-19T10:42:31.629Z,17.03
2018-01-19T10:44:57.782Z,15.30
2018-01-19T10:47:23.932Z,10.27
2018-01-19T10:49:50.116Z,5.27
2018-01-19T10:52:16.303Z,11.27
2018-01-19T10:54:42.450Z,11.27
2018-01-19T10:57:08.663Z,10.87
2018-01-19T10:59:34.855Z,12.23
2018-01-19T11:02:01.060Z,7.40
2018-01-19T11:04:27.236Z,14.50
2018-01-19T11:06:53.395Z,9.87
2018-01-19T11:09:19.542Z,14.87
2018-01-19T11:11:45.640Z,14.20
2018-01-19T11:14:11.793Z,12.00
2018-01-19T11:16:37.909Z,9.83
2018-01-19T11:19:04.033Z,9.10
2018-01-19T11:21:30.425Z,9.60
2018-01-19T11:23:56.655Z,13.57
2018-01-19T11:26:22.884Z,11.40
2018-01-19T11:28:49.315Z,12.57
2018-01-19T11:31:15.578Z,12.10
2018-01-19T11:33:41.812Z,10.27
2018-01-19T11:36:07.990Z,8.77
2018-01-19T11:38:34.178Z,14.83
2018-01-19T11:41:00.415Z,11.30
2018-01-19T11:43:26.649Z,11.90
2018-01-19T11:45:52.845Z,10.57
2018-01-19T11:48:19.034Z,10.33
2018-01-19T11:50:45.247Z,8.27
2018-01-19T11:53:11.467Z,10.70
2018-01-19T11:55:37.641Z,11.10
2018-01-19T11:58:03.854Z,10.93
2018-01-19T12:00:30.083Z,6.73
2018-01-19T12:02:56.294Z,14.43
2018-01-19T12:05:22.426Z,5.97
2018-01-19T12:07:48.626Z,9.93
2018-01-19T12:10:15.095Z,10.17
2018-01-19T12:12:41.320Z,10.47
2018-01-19T12:15:07.531Z,9.57
2018-01-19T12:17:33.697Z,6.83
2018-01-19T12:19:59.918Z,12.43
2018-01-19T12:22:26.063Z,9.77
2018-01-19T12:24:52.354Z,7.73
2018-01-19T12:27:18.555Z,9.67
2018-01-19T12:29:44.764Z,10.40
2018-01-19T12:32:11.501Z,11.93
2018-01-19T12:34:37.796Z,9.83
2018-01-19T12:37:03.924Z,6.23
2018-01-19T12:39:30.076Z,8.10
2018-01-19T12:41:56.317Z,8.37
2018-01-19T12:44:22.473Z,7.37
2018-01-19T12:46:48.754Z,5.53
2018-01-19T12:49:14.902Z,7.73
2018-01-19T12:51:41.239Z,6.93
2018-01-19T12:54:07.429Z,9.93
2018-01-19T12:56:33.563Z,4.87
2018-01-19T12:58:59.835Z,5.97
2018-01-19T13:01:26.098Z,6.00
2018-01-19T13:03:52.313Z,8.13
2018-01-19T13:06:18.465Z,5.80
2018-01-19T13:08:44.712Z,5.20
2018-01-19T13:11:10.942Z,8.93
2018-01-19T13:13:37.341Z,8.37
2018-01-19T13:16:03.725Z,9.07
2018-01-19T13:18:29.904Z,5.10
2018-01-19T13:20:56.093Z,4.67
2018-01-19T13:23:22.210Z,7.27
2018-01-19T13:25:48.333Z,4.90
2018-01-19T13:28:14.481Z,5.97
2018-01-19T13:30:40.655Z,6.03
2018-01-19T13:33:06.747Z,7.67
2018-01-19T13:35:32.903Z,6.73
2018-01-19T13:37:59.096Z,4.20
2018-01-19T13:40:25.264Z,4.00
2018-01-19T13:42:51.459Z,5.90
2018-01-19T13:45:17.568Z,7.63
2018-01-19T13:47:43.678Z,5.30
2018-01-19T13:50:09.961Z,5.80
2018-01-19T13:52:36.155Z,6.03
2018-01-19T13:55:02.406Z,2.80
2018-01-19T13:57:28.579Z,6.90
2018-01-19T13:59:54.788Z,6.70
2018-01-19T14:02:21.020Z,7.47
2018-01-19T14:04:47.179Z,4.77
2018-01-19T14:07:13.437Z,4.80
2018-01-19T14:09:39.615Z,6.17
2018-01-19T14:12:05.882Z,3.73
2018-01-19T14:14:32.947Z,3.87
2018-01-19T14:16:59.106Z,5.67
2018-01-19T14:19:25.345Z,7.20
2018-01-19T14:21:51.565Z,9.30
2018-01-19T14:24:17.801Z,3.80
2018-01-19T14:26:44.003Z,3.40
2018-01-19T14:29:10.213Z,4.13
2018-01-19T14:31:36.406Z,4.90
2018-01-19T14:34:02.608Z,9.13
2018-01-19T14:36:28.850Z,5.10
2018-01-19T14:38:55.069Z,3.90
2018-01-19T14:41:21.322Z,5.10
2018-01-19T14:43:47.573Z,7.80
2018-01-19T14:46:13.753Z,5.87
2018-01-19T14:48:40.594Z,8.37
2018-01-19T14:51:06.827Z,3.70
2018-01-19T14:53:32.949Z,6.30
2018-01-19T14:55:59.088Z,8.17
2018-01-19T14:58:25.264Z,7.63
2018-01-19T15:00:51.480Z,12.23
2018-01-19T15:03:17.711Z,10.43
2018-01-19T15:05:43.931Z,6.40
2018-01-19T15:10:46.197Z,11.63
2018-01-19T15:13:12.394Z,7.20
2018-01-19T15:15:45.356Z,6.37
2018-01-19T15:18:11.634Z,11.23
2018-01-19T15:20:37.839Z,8.77
2018-01-19T15:23:04.013Z,7.43
2018-01-19T15:25:30.291Z,11.03
2018-01-19T15:27:56.507Z,6.73
2018-01-19T15:30:22.675Z,6.50
2018-01-19T15:32:49.021Z,13.60
2018-01-19T15:35:15.389Z,9.37
2018-01-19T15:37:41.718Z,8.23
2018-01-19T15:40:08.101Z,7.57
2018-01-19T15:42:34.396Z,7.10
2018-01-19T15:45:00.586Z,7.33
2018-01-19T15:47:26.857Z,8.07
2018-01-19T15:49:53.193Z,10.50
2018-01-19T15:52:19.461Z,5.73
2018-01-19T15:54:45.621Z,8.43
2018-01-19T15:57:11.769Z,8.43
2018-01-19T15:59:38.035Z,11.13
2018-01-19T16:02:04.262Z,6.17
2018-01-19T16:04:30.434Z,7.47
2018-01-19T16:06:56.576Z,8.60
2018-01-19T16:09:22.759Z,6.33
2018-01-19T16:11:49.020Z,7.13
2018-01-19T16:14:15.240Z,10.47
2018-01-19T16:16:43.816Z,8.73
2018-01-19T16:19:09.979Z,7.97
2018-01-19T16:21:36.188Z,6.90
2018-01-19T16:24:02.421Z,9.87
2018-01-19T16:26:28.574Z,6.57
2018-01-19T16:28:54.707Z,7.70
2018-01-19T16:31:20.975Z,9.77
2018-01-19T16:33:47.129Z,11.93
2018-01-19T16:36:13.282Z,7.67
2018-01-19T16:38:39.489Z,8.23
2018-01-19T16:41:05.698Z,8.40
2018-01-19T16:43:32.008Z,6.40
2018-01-19T16:45:58.804Z,11.77
2018-01-19T16:48:25.050Z,4.13
2018-01-19T16:50:51.228Z,5.27
2018-01-19T16:53:17.378Z,8.07
2018-01-19T16:55:43.506Z,7.60
2018-01-19T16:58:09.629Z,12.27
2018-01-19T17:00:35.788Z,7.23
2018-01-19T17:03:01.940Z,11.40
2018-01-19T17:05:28.045Z,13.00
2018-01-19T17:07:54.239Z,11.93
2018-01-19T17:10:20.338Z,20.43
2018-01-19T17:12:46.533Z,11.57
2018-01-19T17:15:12.654Z,35.17
2018-01-19T17:17:38.755Z,48.77
2018-01-19T17:20:04.923Z,80.50
2018-01-19T17:22:31.100Z,39.53
2018-01-19T17:24:57.919Z,23.87
2018-01-19T17:27:24.080Z,106.90
2018-01-19T17:29:50.196Z,39.07
2018-01-19T17:32:16.346Z,76.43
2018-01-19T17:34:42.511Z,37.70
2018-01-19T17:37:08.639Z,30.83
2018-01-19T17:39:34.752Z,45.93
2018-01-19T17:42:00.932Z,36.27
2018-01-19T17:44:27.052Z,36.00
2018-01-19T17:46:53.200Z,18.60
2018-01-19T17:49:19.356Z,26.40
2018-01-19T17:51:45.529Z,16.00
2018-01-19T18:09:17.449Z,29.37
2018-01-19T18:11:43.792Z,28.07
2018-01-19T18:14:09.979Z,53.60
2018-01-19T18:16:36.094Z,36.03
2018-01-19T18:19:02.255Z,34.63
2018-01-19T18:21:28.512Z,38.10
2018-01-19T18:23:54.629Z,27.23
2018-01-19T18:26:20.811Z,20.87
2018-01-19T18:28:47.079Z,27.50
2018-01-19T18:31:13.222Z,32.00
2018-01-19T18:33:39.407Z,16.67
2018-01-19T18:36:05.657Z,15.47
2018-01-19T18:38:31.771Z,14.30
2018-01-19T18:40:57.924Z,14.43
2018-01-19T18:43:24.118Z,15.17
2018-01-19T18:45:50.246Z,19.67
2018-01-19T18:48:16.384Z,22.83
2018-01-19T18:50:42.614Z,25.60
2018-01-19T18:53:08.846Z,30.63
2018-01-19T18:55:34.976Z,36.03
2018-01-19T18:58:01.096Z,35.83
2018-01-19T19:00:29.235Z,26.70
2018-01-19T19:02:55.601Z,17.53
2018-01-19T19:05:21.803Z,12.50
2018-01-19T19:07:47.999Z,37.07
2018-01-19T19:10:14.215Z,34.07
2018-01-19T19:12:40.464Z,17.60
2018-01-19T19:15:06.632Z,19.10
2018-01-19T19:17:32.874Z,16.83
2018-01-19T19:19:59.102Z,10.60
2018-01-19T19:22:25.344Z,13.73
2018-01-19T19:24:51.602Z,10.03
2018-01-19T19:27:17.836Z,13.60
2018-01-19T19:29:44.005Z,12.57
2018-01-19T19:32:10.442Z,14.03
2018-01-19T19:34:36.625Z,10.83
2018-01-19T19:37:02.858Z,9.17
2018-01-19T19:39:29.102Z,9.13
2018-01-19T19:41:55.381Z,12.90
2018-01-19T19:44:21.548Z,7.40
2018-01-19T19:46:47.719Z,13.63
2018-01-19T19:49:13.943Z,10.43
2018-01-19T19:51:40.177Z,13.07
2018-01-19T19:54:06.464Z,12.87
2018-01-19T19:56:32.629Z,10.10
2018-01-19T19:58:58.790Z,9.03
2018-01-19T20:01:25.128Z,8.90
2018-01-19T20:03:51.452Z,10.83
2018-01-19T20:06:17.660Z,7.80
2018-01-19T20:08:43.898Z,10.23
2018-01-19T20:11:10.154Z,12.57
2018-01-19T20:13:36.448Z,8.77
2018-01-19T20:16:02.652Z,10.17
2018-01-19T20:18:28.838Z,15.30
2018-01-19T20:20:55.013Z,8.20
2018-01-19T20:23:21.283Z,14.50
2018-01-19T20:25:47.478Z,8.93
2018-01-19T20:28:13.729Z,13.50
2018-01-19T20:30:39.919Z,8.83
2018-01-19T20:33:06.153Z,13.33
2018-01-19T20:35:32.493Z,14.67
2018-01-19T20:37:58.708Z,11.27
2018-01-19T20:40:24.962Z,7.90
2018-01-19T20:42:51.339Z,10.30
2018-01-19T20:45:17.557Z,13.93
2018-01-19T20:47:43.769Z,12.93
2018-01-19T20:50:10.025Z,13.90
2018-01-19T20:52:36.298Z,15.50
2018-01-19T20:55:02.609Z,10.17
2018-01-19T20:57:29.780Z,12.30
2018-01-19T20:59:56.051Z,12.30
2018-01-19T21:02:22.387Z,16.47
2018-01-19T21:04:48.576Z,15.90
2018-01-19T21:07:14.840Z,10.80
2018-01-19T21:09:41.148Z,16.00
2018-01-19T21:12:07.544Z,11.63
2018-01-19T21:14:33.852Z,12.47
2018-01-19T21:17:00.068Z,16.90
2018-01-19T21:19:26.241Z,10.90
2018-01-19T21:21:52.498Z,9.33
2018-01-19T21:24:18.767Z,10.50
2018-01-19T21:26:44.992Z,9.93
2018-01-19T21:29:11.180Z,14.43
2018-01-19T21:31:37.408Z,11.17
2018-01-19T21:34:03.721Z,11.83
2018-01-19T21:36:30.024Z,12.50
2018-01-19T21:38:56.199Z,17.13
2018-01-19T21:41:22.396Z,11.97
2018-01-19T21:43:48.693Z,10.60
2018-01-19T21:46:14.852Z,7.40
2018-01-19T21:48:41.028Z,9.60
2018-01-19T21:51:07.232Z,8.10
2018-01-19T21:53:33.456Z,8.50
2018-01-19T21:55:59.801Z,8.30
2018-01-19T21:58:26.013Z,9.07
2018-01-19T22:00:52.217Z,6.47
2018-01-19T22:03:18.457Z,8.50
2018-01-19T22:05:44.635Z,12.43
2018-01-19T22:08:10.808Z,10.77
2018-01-19T22:10:37.045Z,5.47
2018-01-19T22:13:03.244Z,10.60
2018-01-19T22:15:29.602Z,7.40
2018-01-19T22:17:55.801Z,10.30
2018-01-19T22:20:22.019Z,11.03
2018-01-19T22:22:48.285Z,11.73
2018-01-19T22:25:14.435Z,8.47
2018-01-19T22:27:40.628Z,9.50
2018-01-19T22:30:06.930Z,10.37
2018-01-19T22:32:33.082Z,14.17
2018-01-19T22:34:59.294Z,7.47
2018-01-19T22:37:25.491Z,11.93
2018-01-19T22:39:51.791Z,10.20
2018-01-19T22:42:18.069Z,9.90
2018-01-19T22:44:44.268Z,8.40
2018-01-19T22:47:10.427Z,8.67
2018-01-19T22:49:36.601Z,10.13
2018-01-19T22:52:02.790Z,11.23
2018-01-19T22:54:29.006Z,7.77
2018-01-19T22:56:55.192Z,10.43
2018-01-19T22:59:21.386Z,9.43
2018-01-19T23:01:47.609Z,12.30
2018-01-19T23:04:13.860Z,11.97
2018-01-19T23:06:40.029Z,8.03
2018-01-19T23:09:06.183Z,10.67
2018-01-19T23:11:32.401Z,12.27
2018-01-19T23:13:58.709Z,9.03
2018-01-19T23:16:25.129Z,12.97
2018-01-19T23:18:51.309Z,11.30
2018-01-19T23:21:17.516Z,15.63
2018-01-19T23:23:43.742Z,7.77
2018-01-19T23:26:09.903Z,10.97
2018-01-19T23:28:36.110Z,8.70
2018-01-19T23:31:02.292Z,6.40
2018-01-19T23:33:28.462Z,7.17
2018-01-19T23:35:54.656Z,7.33
2018-01-19T23:38:20.846Z,7.50
2018-01-19T23:40:47.073Z,8.10
2018-01-19T23:43:13.302Z,9.77
2018-01-19T23:45:39.463Z,9.47
2018-01-19T23:48:05.628Z,8.23
2018-01-19T23:50:31.821Z,8.93
2018-01-19T23:52:57.974Z,8.13
2018-01-19T23:55:24.139Z,7.17
2018-01-19T23:57:50.308Z,6.50
